Time;durP1;ratioP1;P1;durP2;ratioP2;P2;SDS_P1;SDS_P2;PMS_P1;PMS_P2;Temp;Humidity;BMP_temperature;BMP_pressure;BME280_temperature;BME280_humidity;BME280_pressure;Samples;Min_cycle;Max_cycle;Signal;HPM_P1;HPM_P2
2022/03/25 00:01:02;;;;;;;;;;;;;;;19.11;57.21;101246.59;5008335;28;1452;-34
2022/03/25 00:03:31;;;;;;;;;;;;;;;19.26;56.53;101245.34;5007889;28;1635;-34
2022/03/25 00:06:00;;;;;;;;;;;;;;;19.47;56.98;101238.19;5014994;28;1732;-34
2022/03/25 00:08:36;;;;;;;;;;;;;;;19.61;55.67;101236.19;5013017;28;1781;-34
2022/03/25 00:11:06;;;;;;;;;;;;;;;19.62;55.60;101236.09;5014780;28;1965;-34
2022/03/25 00:13:35;;;;;;;;;;;;;;;19.69;55.98;101241.78;5007609;28;1664;-34
2022/03/25 00:16:09;;;;;;;;;;;;;;;19.67;56.44;101239.22;5009619;28;1797;-34
2022/03/25 00:18:35;;;;;;;;;;;;;;;19.76;56.08;101234.13;5007225;28;1745;-34
2022/03/25 00:21:09;;;;;;;;;;;;;;;19.23;57.17;101235.72;5009008;28;1954;-34
2022/03/25 00:23:38;;;;;;;;;;;;;;;18.87;58.15;101218.13;4999959;28;1772;-34
2022/03/25 00:26:08;;;;;;;;;;;;;;;18.68;58.31;101245.47;5008480;28;1769;-34
2022/03/25 00:28:37;;;;;;;;;;;;;;;18.54;59.07;101246.56;5003131;28;1851;-34
2022/03/25 00:31:18;;;;;;;;;;;;;;;18.48;59.30;101236.34;5009652;28;1777;-34
2022/03/25 00:33:49;;;;;;;;;;;;;;;18.38;59.24;101230.00;5017683;28;1895;-34
2022/03/25 00:36:17;;;;;;;;;;;;;;;18.35;59.16;101224.91;5013044;28;1781;-34
2022/03/25 00:38:57;;;;;;;;;;;;;;;18.35;59.02;101230.28;5028125;28;1843;-35
2022/03/25 00:41:24;;;;;;;;;;;;;;;18.34;59.25;101225.88;5016266;28;1594;-36
2022/03/25 00:43:53;;;;;;;;;;;;;;;18.30;59.11;101230.59;5006869;28;1910;-34
2022/03/25 00:46:19;;;;;;;;;;;;;;;18.27;58.95;101229.03;5014472;28;1945;-34
2022/03/25 00:48:48;;;;;;;;;;;;;;;18.27;59.28;101239.75;5009818;28;1666;-34
2022/03/25 00:51:17;;;;;;;;;;;;;;;18.27;58.85;101246.94;5002035;28;1348;-34
2022/03/25 00:59:06;;;;;;;;;;;;;;;18.16;58.72;101245.06;5009244;28;1858;-34
2022/03/25 01:01:37;;;;;;;;;;;;;;;18.17;58.96;101262.84;5012612;28;1854;-34
2022/03/25 01:04:20;;;;;;;;;;;;;;;18.17;58.57;101262.00;5004303;28;1910;-34
2022/03/25 01:06:48;;;;;;;;;;;;;;;18.15;58.55;101259.44;5010147;28;1636;-34
2022/03/25 01:09:16;;;;;;;;;;;;;;;18.09;58.28;101268.78;5015456;28;1615;-34
2022/03/25 01:11:45;;;;;;;;;;;;;;;18.12;58.07;101278.38;5011542;28;1894;-34
2022/03/25 01:14:13;;;;;;;;;;;;;;;18.47;57.78;101290.91;5006693;28;1662;-34
2022/03/25 01:16:42;;;;;;;;;;;;;;;18.67;57.80;101271.44;5007705;28;2061;-34
2022/03/25 01:19:12;;;;;;;;;;;;;;;18.76;58.00;101275.22;4994305;28;1613;-34
2022/03/25 01:21:40;;;;;;;;;;;;;;;19.04;57.22;101270.38;5011523;28;1834;-34
2022/03/25 01:24:14;;;;;;;;;;;;;;;19.24;56.87;101250.00;5015041;28;1903;-34
2022/03/25 01:26:44;;;;;;;;;;;;;;;19.61;56.04;101276.44;5007849;28;2108;-35
2022/03/25 01:29:14;;;;;;;;;;;;;;;19.58;55.49;101279.41;5004934;28;1792;-34
2022/03/25 01:31:40;;;;;;;;;;;;;;;19.57;55.63;101272.31;5005035;28;1648;-34
2022/03/25 01:34:08;;;;;;;;;;;;;;;19.61;56.44;101282.66;4999590;28;1761;-34
2022/03/25 01:36:35;;;;;;;;;;;;;;;19.55;55.57;101269.75;4995487;28;1829;-34
2022/03/25 01:39:04;;;;;;;;;;;;;;;19.55;56.28;101290.38;5007261;28;1766;-34
2022/03/25 01:41:35;;;;;;;;;;;;;;;19.43;55.80;101294.91;4998319;28;1350;-34
2022/03/25 01:44:02;;;;;;;;;;;;;;;19.46;56.67;101284.78;5002166;28;1482;-34
2022/03/25 01:46:36;;;;;;;;;;;;;;;19.54;56.17;101297.56;5014168;28;1702;-34
2022/03/25 01:49:03;;;;;;;;;;;;;;;19.52;56.24;101315.63;5000411;28;1942;-34
2022/03/25 01:51:31;;;;;;;;;;;;;;;19.11;57.28;101310.94;5006118;28;1626;-34
2022/03/25 01:54:01;;;;;;;;;;;;;;;18.80;57.83;101314.22;4980622;28;1417;-34
2022/03/25 01:56:27;;;;;;;;;;;;;;;18.60;58.46;101326.47;5005557;28;1274;-34
2022/03/25 01:59:02;;;;;;;;;;;;;;;18.48;58.79;101316.69;5011973;28;996;-34
2022/03/25 02:01:31;;;;;;;;;;;;;;;18.45;58.94;101335.69;5014089;28;1745;-34
2022/03/25 02:04:01;;;;;;;;;;;;;;;18.82;57.50;101332.84;5000364;28;1991;-34
2022/03/25 02:06:30;;;;;;;;;;;;;;;19.02;57.33;101336.63;4994074;28;1980;-34
2022/03/25 02:09:04;;;;;;;;;;;;;;;19.13;57.08;101341.16;4992090;28;1557;-34
2022/03/25 02:11:32;;;;;;;;;;;;;;;19.32;57.01;101332.47;4974028;28;1694;-35
2022/03/25 02:16:55;;;;;;;;;;;;;;;19.65;55.31;101350.34;4992099;28;1598;-34
2022/03/25 02:22:09;;;;;;;;;;;;;;;19.04;56.52;101346.28;4977506;28;2591;-34
2022/03/25 02:24:37;;;;;;;;;;;;;;;18.77;58.15;101369.84;4983260;28;1906;-34
2022/03/25 02:27:19;;;;;;;;;;;;;;;18.60;58.75;101365.78;4994155;28;1904;-34
2022/03/25 02:29:47;;;;;;;;;;;;;;;18.48;58.87;101364.88;4992323;28;1822;-34
2022/03/25 02:32:17;;;;;;;;;;;;;;;18.49;57.96;101370.13;4974356;28;1410;-34
2022/03/25 02:34:46;;;;;;;;;;;;;;;18.87;57.24;101366.34;4978967;28;1569;-34
2022/03/25 02:37:17;;;;;;;;;;;;;;;19.03;57.29;101363.31;4981745;28;1932;-34
2022/03/25 02:39:44;;;;;;;;;;;;;;;19.12;57.12;101368.91;4977457;28;1477;-34
2022/03/25 02:42:34;;;;;;;;;;;;;;;18.88;57.39;101386.81;4994292;28;1620;-34
2022/03/25 02:45:04;;;;;;;;;;;;;;;18.65;58.93;101377.84;4974817;28;1985;-34
2022/03/25 02:47:33;;;;;;;;;;;;;;;18.49;58.74;101390.72;4993749;28;1849;-34
2022/03/25 02:49:59;;;;;;;;;;;;;;;18.42;58.86;101379.63;4994133;28;1818;-34
2022/03/25 02:52:32;;;;;;;;;;;;;;;18.36;59.16;101373.88;4980205;28;1834;-34
2022/03/25 02:55:02;;;;;;;;;;;;;;;18.29;58.79;101374.34;4993795;28;1770;-34
2022/03/25 02:57:32;;;;;;;;;;;;;;;18.29;58.70;101377.00;4986876;28;1554;-34
2022/03/25 03:00:01;;;;;;;;;;;;;;;18.28;58.51;101378.00;4981381;28;1550;-34
2022/03/25 03:02:34;;;;;;;;;;;;;;;18.24;57.90;101376.53;5105655;23;3792;-32
2022/03/25 03:05:00;;;;;;;;;;;;;;;18.23;57.28;101385.50;5020899;28;1910;-32
2022/03/25 03:07:27;;;;;;;;;;;;;;;18.22;57.55;101382.94;5025142;28;1601;-32
2022/03/25 03:09:54;;;;;;;;;;;;;;;18.19;56.69;101380.50;5021466;28;1752;-32
2022/03/25 03:12:28;;;;;;;;;;;;;;;18.15;56.76;101385.22;5025868;28;1322;-32
2022/03/25 03:14:55;;;;;;;;;;;;;;;18.14;57.00;101396.91;5020622;28;1691;-32
2022/03/25 03:17:22;;;;;;;;;;;;;;;18.12;56.84;101396.16;5029166;28;1569;-32
2022/03/25 03:19:50;;;;;;;;;;;;;;;18.10;56.46;101392.75;5025941;28;1660;-32
2022/03/25 03:22:17;;;;;;;;;;;;;;;18.11;56.28;101397.13;5027842;28;1964;-32
2022/03/25 03:24:43;;;;;;;;;;;;;;;18.09;56.41;101399.06;5013949;28;1910;-32
2022/03/25 03:27:12;;;;;;;;;;;;;;;18.04;56.82;101386.00;5020429;28;1797;-32
2022/03/25 03:29:38;;;;;;;;;;;;;;;18.02;56.86;101389.78;5026962;28;1935;-32
2022/03/25 03:32:05;;;;;;;;;;;;;;;18.00;56.43;101387.22;5023351;28;1970;-32
2022/03/25 03:34:32;;;;;;;;;;;;;;;18.01;56.35;101385.41;5023535;28;1520;-32
2022/03/25 03:36:59;;;;;;;;;;;;;;;18.01;56.12;101380.06;5026661;28;1413;-32
2022/03/25 03:39:25;;;;;;;;;;;;;;;18.01;56.19;101380.06;5024637;28;1828;-32
2022/03/25 03:41:52;;;;;;;;;;;;;;;17.96;56.46;101377.72;5024050;28;1769;-32
2022/03/25 03:44:19;;;;;;;;;;;;;;;17.97;56.82;101378.59;5023382;28;1860;-32
2022/03/25 03:46:46;;;;;;;;;;;;;;;17.95;57.55;101375.16;5021861;28;1972;-32
2022/03/25 03:49:12;;;;;;;;;;;;;;;17.97;57.39;101386.63;5024511;28;1149;-32
2022/03/25 03:51:39;;;;;;;;;;;;;;;17.96;57.05;101379.53;5026710;28;1600;-32
2022/03/25 03:54:05;;;;;;;;;;;;;;;17.94;56.08;101384.16;5034836;28;1894;-33
2022/03/25 03:56:32;;;;;;;;;;;;;;;17.94;55.79;101385.00;5029053;28;1809;-32
2022/03/25 03:58:58;;;;;;;;;;;;;;;17.93;55.37;101377.94;5027139;28;1561;-32
2022/03/25 04:01:26;;;;;;;;;;;;;;;17.91;55.58;101385.25;5028586;28;2322;-32
2022/03/25 04:03:53;;;;;;;;;;;;;;;17.87;55.77;101379.25;5016805;28;1839;-32
2022/03/25 04:06:22;;;;;;;;;;;;;;;17.86;54.52;101382.88;5016093;28;1954;-32
2022/03/25 04:08:48;;;;;;;;;;;;;;;17.83;54.69;101383.13;5016495;28;1748;-32
2022/03/25 04:11:15;;;;;;;;;;;;;;;17.86;55.25;101385.56;5016711;28;1807;-32
2022/03/25 04:13:43;;;;;;;;;;;;;;;17.83;56.06;101383.13;5016266;28;1915;-32
2022/03/25 04:16:10;;;;;;;;;;;;;;;17.83;55.82;101384.91;5016541;28;2002;-32
2022/03/25 04:18:38;;;;;;;;;;;;;;;17.82;55.90;101386.72;5012036;28;1638;-32
2022/03/25 04:21:04;;;;;;;;;;;;;;;17.83;55.91;101393.81;5016399;28;1842;-32
2022/03/25 04:23:31;;;;;;;;;;;;;;;17.77;54.36;101370.16;5016484;28;1691;-32
2022/03/25 04:25:57;;;;;;;;;;;;;;;17.79;55.42;101384.28;5008911;28;1910;-32
2022/03/25 04:28:23;;;;;;;;;;;;;;;17.77;55.60;101382.69;5016063;28;1827;-32
2022/03/25 04:30:50;;;;;;;;;;;;;;;17.80;55.87;101387.81;5015787;28;1610;-32
2022/03/25 04:33:16;;;;;;;;;;;;;;;17.84;58.01;101381.28;5015866;28;1533;-32
2022/03/25 04:35:44;;;;;;;;;;;;;;;18.10;56.88;101384.72;5016157;28;1662;-32
2022/03/25 04:38:11;;;;;;;;;;;;;;;18.00;58.21;101378.34;5015757;28;1741;-32
2022/03/25 04:40:37;;;;;;;;;;;;;;;17.95;57.68;101386.72;5006703;28;1757;-32
2022/03/25 04:43:03;;;;;;;;;;;;;;;18.25;56.93;101383.56;5014156;28;1795;-32
2022/03/25 04:45:31;;;;;;;;;;;;;;;18.59;56.00;101386.38;5015475;28;1972;-32
2022/03/25 04:47:58;;;;;;;;;;;;;;;18.69;56.06;101373.97;5015962;28;1780;-32
2022/03/25 04:50:25;;;;;;;;;;;;;;;18.81;56.20;101380.22;5015066;28;1135;-32
2022/03/25 04:52:52;;;;;;;;;;;;;;;19.04;55.94;101391.84;5015126;28;1606;-32
2022/03/25 04:55:19;;;;;;;;;;;;;;;19.23;55.51;101382.34;5013603;28;1874;-32
2022/03/25 04:57:46;;;;;;;;;;;;;;;19.27;54.75;101392.69;5015507;28;1574;-32
2022/03/25 05:00:14;;;;;;;;;;;;;;;19.12;54.98;101393.03;5014281;28;1642;-32
2022/03/25 05:02:40;;;;;;;;;;;;;;;19.18;55.71;101393.44;5019060;28;1744;-32
2022/03/25 05:05:07;;;;;;;;;;;;;;;19.11;55.65;101402.09;5023682;28;1980;-32
2022/03/25 05:07:34;;;;;;;;;;;;;;;19.17;55.75;101393.56;5024860;28;1771;-34
2022/03/25 05:10:02;;;;;;;;;;;;;;;19.10;56.18;101395.88;5030189;28;1868;-33
2022/03/25 05:12:29;;;;;;;;;;;;;;;19.27;55.53;101386.47;5022748;28;1575;-33
2022/03/25 05:14:56;;;;;;;;;;;;;;;19.24;55.41;101384.06;5029740;28;1727;-33
2022/03/25 05:17:22;;;;;;;;;;;;;;;19.48;55.19;101400.00;5028933;28;1612;-33
2022/03/25 05:19:49;;;;;;;;;;;;;;;19.63;54.71;101387.19;5025894;28;1828;-33
2022/03/25 05:22:15;;;;;;;;;;;;;;;19.72;55.29;101381.09;5024520;28;1626;-33
2022/03/25 05:24:42;;;;;;;;;;;;;;;19.96;54.60;101385.44;5020235;28;2037;-33
2022/03/25 05:27:10;;;;;;;;;;;;;;;20.14;53.72;101386.59;5023321;28;1906;-33
2022/03/25 05:29:36;;;;;;;;;;;;;;;19.85;54.25;101392.53;5027621;28;1896;-33
2022/03/25 05:32:03;;;;;;;;;;;;;;;20.01;53.53;101396.63;5025010;28;1701;-33
2022/03/25 05:34:29;;;;;;;;;;;;;;;20.06;53.32;101395.28;5025093;28;1020;-33
2022/03/25 05:36:56;;;;;;;;;;;;;;;20.20;52.67;101394.13;5032046;28;1795;-33
2022/03/25 05:39:22;;;;;;;;;;;;;;;20.22;53.91;101385.94;5029128;28;2568;-33
2022/03/25 05:41:49;;;;;;;;;;;;;;;20.22;53.59;101389.47;5025736;28;1629;-33
2022/03/25 05:44:17;;;;;;;;;;;;;;;20.12;54.40;101393.91;5025316;28;1446;-33
2022/03/25 05:46:44;;;;;;;;;;;;;;;20.21;54.29;101382.41;5023503;28;1975;-34
2022/03/25 05:49:10;;;;;;;;;;;;;;;20.07;54.20;101393.44;5030328;28;1676;-33
2022/03/25 05:51:37;;;;;;;;;;;;;;;20.11;54.36;101397.56;5027032;28;1695;-32
2022/03/25 05:54:03;;;;;;;;;;;;;;;19.83;54.12;101402.53;5032547;28;1853;-33
2022/03/25 05:56:30;;;;;;;;;;;;;;;19.27;51.85;101392.69;5020336;28;1566;-33
2022/03/25 05:58:56;;;;;;;;;;;;;;;19.09;56.12;101404.88;5024031;28;1727;-33
2022/03/25 06:01:38;;;;;;;;;;;;;;;18.98;56.83;101416.44;5029638;28;1810;-33
2022/03/25 06:04:11;;;;;;;;;;;;;;;18.94;56.82;101412.31;5033234;28;1667;-33
2022/03/25 06:06:40;;;;;;;;;;;;;;;18.87;57.52;101405.69;5030925;28;2085;-33
2022/03/25 06:09:09;;;;;;;;;;;;;;;18.90;56.55;101410.84;5032559;28;1865;-34
2022/03/25 06:11:36;;;;;;;;;;;;;;;18.98;56.69;101403.03;5014940;28;1962;-34
2022/03/25 06:14:03;;;;;;;;;;;;;;;19.02;56.81;101407.19;5024234;28;1748;-34
2022/03/25 06:16:30;;;;;;;;;;;;;;;19.04;56.73;101412.44;5031054;28;1720;-33
2022/03/25 06:19:00;;;;;;;;;;;;;;;18.98;56.17;101413.78;5031135;28;1755;-34
2022/03/25 06:21:40;;;;;;;;;;;;;;;18.97;56.86;101409.38;5026812;28;1894;-34
2022/03/25 06:24:28;;;;;;;;;;;;;;;18.94;57.31;101406.94;5028922;28;1692;-34
2022/03/25 06:26:58;;;;;;;;;;;;;;;18.97;57.22;101420.09;5019001;28;1985;-34
2022/03/25 06:29:29;;;;;;;;;;;;;;;19.02;57.34;101409.88;5021015;28;2405;-34
2022/03/25 06:31:59;;;;;;;;;;;;;;;19.02;57.48;101409.88;5032979;28;1719;-34
2022/03/25 06:34:29;;;;;;;;;;;;;;;19.10;56.83;101413.75;5032916;28;1720;-34
2022/03/25 06:36:58;;;;;;;;;;;;;;;19.02;57.33;101417.91;5030841;28;1736;-34
2022/03/25 06:39:26;;;;;;;;;;;;;;;19.05;57.26;101425.69;5022019;28;1696;-34
2022/03/25 06:41:53;;;;;;;;;;;;;;;19.11;56.86;101423.53;5033032;28;1666;-34
2022/03/25 06:44:19;;;;;;;;;;;;;;;19.12;57.21;101412.69;5024511;28;1602;-34
2022/03/25 06:46:46;;;;;;;;;;;;;;;19.11;57.25;101434.25;5033384;28;1901;-34
2022/03/25 06:49:12;;;;;;;;;;;;;;;19.11;56.58;101413.66;5032516;28;1421;-34
2022/03/25 06:51:39;;;;;;;;;;;;;;;19.12;57.11;101410.00;5028999;28;1961;-35
2022/03/25 06:54:07;;;;;;;;;;;;;;;19.11;57.25;101412.81;5024134;28;1634;-34
2022/03/25 06:56:34;;;;;;;;;;;;;;;19.07;57.24;101418.38;5036745;28;1524;-34
2022/03/25 06:59:04;;;;;;;;;;;;;;;19.11;57.49;101419.00;5032580;28;1589;-34
2022/03/25 07:01:32;;;;;;;;;;;;;;;19.15;56.76;101417.78;5019955;28;1428;-34
2022/03/25 07:04:05;;;;;;;;;;;;;;;19.13;57.11;101406.34;5028126;28;1915;-34
2022/03/25 07:06:32;;;;;;;;;;;;;;;19.17;56.96;101418.53;5021156;28;1977;-34
2022/03/25 07:08:59;;;;;;;;;;;;;;;19.14;57.95;101409.88;5032375;28;1565;-34
2022/03/25 07:11:28;;;;;;;;;;;;;;;19.13;57.89;101413.53;5027477;28;1353;-34
2022/03/25 07:13:54;;;;;;;;;;;;;;;19.15;57.23;101411.59;5027909;28;1833;-34
2022/03/25 07:16:21;;;;;;;;;;;;;;;19.17;57.31;101415.00;5026731;28;1665;-34
2022/03/25 07:18:47;;;;;;;;;;;;;;;19.13;57.74;101406.34;5025613;28;2013;-34
2022/03/25 07:21:14;;;;;;;;;;;;;;;19.19;57.13;101410.38;5022044;28;1813;-34
2022/03/25 07:23:40;;;;;;;;;;;;;;;19.18;57.90;101396.13;5034255;28;1665;-34
2022/03/25 07:26:07;;;;;;;;;;;;;;;19.21;57.32;101403.06;5025221;28;1953;-34
2022/03/25 07:28:35;;;;;;;;;;;;;;;19.14;57.05;101401.81;5030803;28;1783;-34
2022/03/25 07:31:02;;;;;;;;;;;;;;;19.10;57.61;101400.34;5025801;28;1708;-34
2022/03/25 07:33:28;;;;;;;;;;;;;;;19.18;57.71;101393.44;5027395;28;1844;-35
2022/03/25 07:35:55;;;;;;;;;;;;;;;19.12;57.85;101398.41;5034062;28;1607;-34
2022/03/25 07:38:21;;;;;;;;;;;;;;;19.18;58.71;101403.28;5031812;28;1453;-34
2022/03/25 07:40:48;;;;;;;;;;;;;;;18.34;46.98;101397.22;5031138;28;1908;-34
2022/03/25 07:43:14;;;;;;;;;;;;;;;17.79;46.79;101403.00;5027539;28;1456;-34
2022/03/25 07:45:42;;;;;;;;;;;;;;;18.29;50.27;101405.63;5030261;28;1453;-34
2022/03/25 07:48:08;;;;;;;;;;;;;;;18.56;50.39;101410.72;5026961;28;1977;-34
2022/03/25 07:50:42;;;;;;;;;;;;;;;18.66;49.08;101401.00;5027042;28;1425;-34
2022/03/25 07:53:09;;;;;;;;;;;;;;;18.72;48.45;101396.13;5029767;28;1468;-34
2022/03/25 07:55:35;;;;;;;;;;;;;;;18.80;48.78;101399.09;5027056;28;1767;-34
2022/03/25 07:58:02;;;;;;;;;;;;;;;18.77;48.93;101389.44;5026782;28;1988;-34
2022/03/25 08:00:28;;;;;;;;;;;;;;;18.77;48.58;101396.63;5026986;28;1628;-34
2022/03/25 08:02:56;;;;;;;;;;;;;;;18.74;48.47;101391.50;5024821;28;1633;-34
2022/03/25 08:05:23;;;;;;;;;;;;;;;18.79;48.45;101397.38;5016540;28;1610;-34
2022/03/25 08:07:52;;;;;;;;;;;;;;;18.77;48.21;101389.44;5016668;28;1899;-34
2022/03/25 08:10:19;;;;;;;;;;;;;;;18.79;48.77;101392.00;5016059;28;1597;-34
2022/03/25 08:12:45;;;;;;;;;;;;;;;18.77;47.80;101388.59;5016047;28;1432;-34
2022/03/25 08:15:13;;;;;;;;;;;;;;;18.73;47.36;101381.78;5016120;28;1583;-34
2022/03/25 08:17:50;;;;;;;;;;;;;;;18.74;47.77;101383.47;5016457;28;1626;-34
2022/03/25 08:20:21;;;;;;;;;;;;;;;18.73;47.99;101376.41;5008131;28;1648;-34
2022/03/25 08:22:48;;;;;;;;;;;;;;;18.74;47.60;101378.09;5015923;28;1074;-34
2022/03/25 08:28:01;;;;;;;;;;;;;;;18.74;46.94;101383.47;5015740;28;1918;-34
2022/03/25 08:30:27;;;;;;;;;;;;;;;18.71;46.81;101359.59;5015273;28;1753;-35
2022/03/25 08:32:54;;;;;;;;;;;;;;;18.70;47.03;101366.78;5016030;28;1481;-34
2022/03/25 08:35:22;;;;;;;;;;;;;;;18.73;46.94;101366.53;5015107;28;1139;-34
2022/03/25 08:37:48;;;;;;;;;;;;;;;18.71;46.88;101365.81;5015781;28;1158;-34
2022/03/25 08:40:15;;;;;;;;;;;;;;;18.69;46.66;101363.25;5016387;28;1898;-34
2022/03/25 08:42:41;;;;;;;;;;;;;;;18.72;46.34;101362.19;5015892;28;1606;-34
2022/03/25 08:45:08;;;;;;;;;;;;;;;18.70;46.07;101366.78;5015759;28;1516;-34
2022/03/25 08:47:34;;;;;;;;;;;;;;;18.74;46.51;101362.03;5007462;28;1910;-34
2022/03/25 08:50:01;;;;;;;;;;;;;;;18.73;46.16;101363.03;5016008;28;1618;-34
2022/03/25 08:52:29;;;;;;;;;;;;;;;18.69;46.10;101357.88;5016178;28;1063;-34
2022/03/25 08:54:55;;;;;;;;;;;;;;;18.66;46.21;101368.84;5015641;28;1541;-34
2022/03/25 08:57:21;;;;;;;;;;;;;;;18.61;46.83;101344.25;5015752;28;1863;-34
2022/03/25 08:59:48;;;;;;;;;;;;;;;18.64;46.55;101349.38;5015671;28;1455;-34
2022/03/25 09:02:15;;;;;;;;;;;;;;;18.68;46.14;101347.28;5015403;28;1496;-34
2022/03/25 09:04:41;;;;;;;;;;;;;;;18.71;46.63;101357.78;5023216;28;1531;-34
2022/03/25 09:07:08;;;;;;;;;;;;;;;18.71;46.92;101347.06;5024820;28;1979;-34
2022/03/25 09:09:37;;;;;;;;;;;;;;;18.70;47.07;101337.31;5031180;28;1847;-34
2022/03/25 09:12:03;;;;;;;;;;;;;;;18.73;47.61;101338.91;5027310;28;1542;-34
2022/03/25 09:14:30;;;;;;;;;;;;;;;18.74;47.47;101329.88;5025045;28;1577;-34
2022/03/25 09:16:56;;;;;;;;;;;;;;;18.74;47.70;101320.03;5024681;28;1672;-34
2022/03/25 09:19:23;;;;;;;;;;;;;;;18.71;48.26;101338.19;5026685;28;1077;-34
2022/03/25 09:21:49;;;;;;;;;;;;;;;18.73;48.75;101328.19;5027337;28;1911;-34
2022/03/25 09:24:15;;;;;;;;;;;;;;;18.73;48.33;101352.31;5017926;28;1763;-34
2022/03/25 09:26:43;;;;;;;;;;;;;;;18.71;49.12;101330.13;5024709;28;1906;-34
2022/03/25 09:29:10;;;;;;;;;;;;;;;18.73;48.95;101317.47;5026001;28;1861;-34
2022/03/25 09:31:36;;;;;;;;;;;;;;;18.68;49.36;101326.72;5026654;28;1117;-34
2022/03/25 09:36:46;;;;;;;;;;;;;;;18.72;49.69;101322.00;5020535;28;2196;-34
2022/03/25 09:39:13;;;;;;;;;;;;;;;18.71;49.92;101324.78;5023156;28;1664;-34
2022/03/25 09:41:39;;;;;;;;;;;;;;;18.67;49.80;101325.00;5025047;28;1500;-34
2022/03/25 09:44:08;;;;;;;;;;;;;;;18.67;49.75;101321.47;5023833;28;1740;-34
2022/03/25 09:46:41;;;;;;;;;;;;;;;18.69;49.99;101311.50;5023617;28;1906;-34
2022/03/25 09:49:08;;;;;;;;;;;;;;;18.68;50.39;101320.50;5027091;28;1943;-34
2022/03/25 09:51:35;;;;;;;;;;;;;;;18.66;50.35;101328.66;5020735;28;1564;-34
2022/03/25 09:54:01;;;;;;;;;;;;;;;18.66;50.63;101317.97;5032818;28;1704;-34
2022/03/25 09:56:28;;;;;;;;;;;;;;;18.67;50.64;101325.00;5025265;28;1708;-35
2022/03/25 09:58:55;;;;;;;;;;;;;;;18.64;50.52;101319.91;5025875;28;1194;-34
2022/03/25 10:01:23;;;;;;;;;;;;;;;18.64;50.86;101324.38;5026037;28;1943;-34
2022/03/25 10:03:49;;;;;;;;;;;;;;;18.63;50.79;101310.16;5016761;28;1784;-34
2022/03/25 10:06:15;;;;;;;;;;;;;;;18.81;51.51;101315.06;5014418;28;1649;-34
2022/03/25 10:08:43;;;;;;;;;;;;;;;18.78;50.97;101304.56;5014579;28;1969;-34
2022/03/25 10:11:22;;;;;;;;;;;;;;;18.77;51.49;101302.88;5014387;28;1746;-34
2022/03/25 10:13:49;;;;;;;;;;;;;;;18.78;51.17;101299.19;5014177;28;1415;-33
2022/03/25 10:16:27;;;;;;;;;;;;;;;18.87;50.84;101298.50;5014495;28;1765;-34
2022/03/25 10:18:54;;;;;;;;;;;;;;;18.88;51.26;101310.94;5014569;28;1864;-34
2022/03/25 10:21:20;;;;;;;;;;;;;;;18.81;51.73;101304.34;5013848;28;2146;-34
2022/03/25 10:23:47;;;;;;;;;;;;;;;18.76;51.51;101291.31;5014331;28;1865;-34
2022/03/25 10:26:13;;;;;;;;;;;;;;;18.78;51.92;101289.34;5014332;28;1028;-34
2022/03/25 10:28:42;;;;;;;;;;;;;;;18.83;52.36;101294.38;5013963;28;1906;-34
2022/03/25 10:31:11;;;;;;;;;;;;;;;18.77;52.00;101287.63;5013993;28;1801;-34
2022/03/25 10:33:45;;;;;;;;;;;;;;;18.67;51.41;101282.16;5009339;28;1558;-34
2022/03/25 10:36:14;;;;;;;;;;;;;;;18.64;52.01;101266.31;5014688;28;1713;-34
2022/03/25 10:38:45;;;;;;;;;;;;;;;18.57;52.54;101278.50;5014203;28;1258;-34
2022/03/25 10:41:13;;;;;;;;;;;;;;;18.54;52.59;101265.31;5014177;28;1049;-34
2022/03/25 10:43:54;;;;;;;;;;;;;;;18.54;52.27;101275.19;5013532;28;1839;-34
2022/03/25 10:46:27;;;;;;;;;;;;;;;18.52;52.27;101272.63;5013450;28;2140;-34
2022/03/25 10:48:55;;;;;;;;;;;;;;;18.53;52.53;101277.03;5013208;28;1975;-34
2022/03/25 10:51:21;;;;;;;;;;;;;;;18.59;51.54;101262.31;5013866;28;1859;-34
2022/03/25 10:53:55;;;;;;;;;;;;;;;18.65;51.93;101259.13;5013900;28;1676;-34
2022/03/25 10:56:22;;;;;;;;;;;;;;;18.59;51.86;101256.94;5013649;28;1094;-34
2022/03/25 10:58:52;;;;;;;;;;;;;;;18.56;51.96;101263.41;5012926;28;1650;-34
2022/03/25 11:01:19;;;;;;;;;;;;;;;18.58;51.57;101263.25;5013516;28;1854;-34
2022/03/25 11:03:46;;;;;;;;;;;;;;;18.56;51.74;101266.09;5021058;28;1961;-34
2022/03/25 11:06:15;;;;;;;;;;;;;;;18.53;50.20;101263.63;5023317;28;1601;-34
2022/03/25 11:08:42;;;;;;;;;;;;;;;18.57;50.26;101253.53;5015732;28;1906;-34
2022/03/25 11:11:09;;;;;;;;;;;;;;;18.62;50.01;101254.00;5021597;28;1831;-34
2022/03/25 11:13:35;;;;;;;;;;;;;;;18.62;50.38;101262.91;5021310;28;1701;-34
2022/03/25 11:16:02;;;;;;;;;;;;;;;18.57;50.70;101265.09;5027190;28;1838;-34
2022/03/25 11:18:29;;;;;;;;;;;;;;;18.63;50.82;101269.13;5022629;28;1773;-34
2022/03/25 11:20:58;;;;;;;;;;;;;;;18.73;51.11;101275.44;5027222;28;1587;-34
2022/03/25 11:23:28;;;;;;;;;;;;;;;18.68;51.19;101253.53;5018326;28;1096;-34
2022/03/25 11:25:56;;;;;;;;;;;;;;;18.72;51.25;101248.78;5024890;28;2017;-34
2022/03/25 11:28:28;;;;;;;;;;;;;;;18.77;51.92;101242.09;5029508;28;1902;-33
2022/03/25 11:30:59;;;;;;;;;;;;;;;18.66;51.86;101251.00;5024100;28;1701;-33
2022/03/25 11:33:26;;;;;;;;;;;;;;;18.65;52.05;101251.94;5026232;28;1595;-34
2022/03/25 11:36:07;;;;;;;;;;;;;;;18.63;51.64;101258.41;5026647;28;1412;-34
2022/03/25 11:38:35;;;;;;;;;;;;;;;18.69;52.54;101253.41;5030648;28;1910;-34
2022/03/25 11:41:21;;;;;;;;;;;;;;;18.82;51.88;101247.09;5027216;28;1572;-35
2022/03/25 11:44:05;;;;;;;;;;;;;;;19.47;50.73;101243.56;5027922;28;1747;-34
2022/03/25 11:46:32;;;;;;;;;;;;;;;19.50;50.51;101228.19;5020414;28;1764;-34
2022/03/25 11:49:17;;;;;;;;;;;;;;;19.70;51.44;101242.66;5021175;28;1906;-34
2022/03/25 11:51:45;;;;;;;;;;;;;;;19.75;51.19;101254.72;5027624;28;1951;-34
2022/03/25 11:54:30;;;;;;;;;;;;;;;19.73;51.32;101240.56;5030364;28;1754;-34
2022/03/25 11:56:58;;;;;;;;;;;;;;;19.96;51.21;101244.00;5023213;28;1433;-34
2022/03/25 11:59:25;;;;;;;;;;;;;;;20.29;50.23;101260.03;5022221;28;1684;-34
2022/03/25 12:02:11;;;;;;;;;;;;;;;20.38;49.80;101243.16;5023252;28;1472;-34
2022/03/25 12:04:40;;;;;;;;;;;;;;;19.84;51.65;101247.75;5027773;28;1593;-34
2022/03/25 12:07:11;;;;;;;;;;;;;;;19.40;52.89;101246.91;5031081;28;1733;-34
2022/03/25 12:09:39;;;;;;;;;;;;;;;19.21;52.84;101242.19;5029814;28;1965;-34
2022/03/25 12:12:06;;;;;;;;;;;;;;;19.05;53.02;101256.81;5028246;28;1609;-34
2022/03/25 12:14:36;;;;;;;;;;;;;;;18.99;52.92;101251.13;5034936;28;1666;-35
2022/03/25 12:17:07;;;;;;;;;;;;;;;18.93;53.08;101249.78;5034658;28;1582;-34
2022/03/25 12:20:02;;;;;;;;;;;;;;;18.89;53.60;101256.38;5030705;28;1546;-34
2022/03/25 12:22:43;;;;;;;;;;;;;;;18.82;53.17;101236.38;5025610;28;1770;-34
2022/03/25 12:25:20;;;;;;;;;;;;;;;18.81;53.52;101248.09;5037511;28;1794;-34
2022/03/25 12:27:48;;;;;;;;;;;;;;;18.77;54.05;101246.59;5039236;28;1906;-34
2022/03/25 12:30:15;;;;;;;;;;;;;;;18.74;54.14;101242.34;5027200;28;1683;-34
2022/03/25 12:32:42;;;;;;;;;;;;;;;18.76;54.00;101252.91;5030721;28;1542;-34
2022/03/25 12:35:09;;;;;;;;;;;;;;;18.69;54.07;101234.66;5025184;28;983;-34
2022/03/25 12:37:47;;;;;;;;;;;;;;;18.70;53.88;101238.19;5027887;28;2009;-34
2022/03/25 12:40:14;;;;;;;;;;;;;;;18.69;54.29;101253.41;5022480;28;2068;-34
2022/03/25 12:42:41;;;;;;;;;;;;;;;18.68;53.74;101248.16;5034057;28;2068;-34
2022/03/25 12:45:09;;;;;;;;;;;;;;;18.67;54.38;101250.00;5028219;28;1558;-34
2022/03/25 12:47:36;;;;;;;;;;;;;;;18.65;54.39;101249.25;5024292;28;1981;-34
2022/03/25 12:50:04;;;;;;;;;;;;;;;18.65;54.25;101233.19;5024028;28;1595;-34
2022/03/25 12:52:31;;;;;;;;;;;;;;;18.63;54.15;101240.50;5027319;28;1015;-34
2022/03/25 12:55:07;;;;;;;;;;;;;;;18.63;54.02;101242.34;5029359;28;1716;-34
2022/03/25 12:57:35;;;;;;;;;;;;;;;18.61;54.57;101238.94;5025442;28;1787;-34
2022/03/25 13:00:02;;;;;;;;;;;;;;;18.61;53.93;101238.94;5025925;28;1624;-34
2022/03/25 13:02:33;;;;;;;;;;;;;;;18.58;54.02;101245.38;5027310;28;1491;-34
2022/03/25 13:05:11;;;;;;;;;;;;;;;18.58;54.10;101244.50;5016983;28;1972;-34
2022/03/25 13:07:38;;;;;;;;;;;;;;;18.55;54.08;101240.25;5015582;28;1907;-34
2022/03/25 13:10:05;;;;;;;;;;;;;;;18.56;54.03;101227.72;5015233;28;1875;-34
2022/03/25 13:12:33;;;;;;;;;;;;;;;18.64;53.25;101249.38;5015331;28;1422;-34